• Join FlightAware (Why Join?)
  • Login
  • US Flag 
06:19AM EDT


 

Airport Tracker/Info


-or-


 

Live Flight TrackerFlight Track Log ✈ SWA1844 ✈ 06-May-2013 ✈ KPHX - KSEA

Flight Track Log - Related Links

Times and Time Zones

All times are in EDT time to prevent confusion due to time zone crossing. See the SWA1844 flight status page for this flight to view local times or setup timezone preferences in your user account.

Time Position Orientation Groundspeed Altitude Reporting Facility
EDT Latitude Longitude Course Direction KTS MPH feet Rate Location/Type
12:47AM 33.4333 -112.0667 270° West 183 211 3,700  Level Phoenix TRACON
12:48AM 33.4353 -112.0919 275° West 180 207 4,600 2,820 Climbing Albuquerque Center
12:49AM 33.4400 -112.1608 275° West 196 226 7,900 2,820 Climbing Albuquerque Center
12:50AM 33.5022 -112.1825 344° North 284 327 10,400 2,520 Climbing Albuquerque Center
12:51AM 33.5789 -112.1136 37° Northeast 341 392 13,100 2,940 Climbing Albuquerque Center
12:52AM 33.6650 -112.0447 34° Northeast 366 421 16,400 3,480 Climbing Albuquerque Center
12:53AM 33.7689 -111.9628 33° Northeast 395 455 20,200 3,660 Climbing Albuquerque Center
12:54AM 33.8564 -111.8900 35° Northeast 388 447 23,900 2,280 Climbing Albuquerque Center
12:55AM 33.9656 -111.8814 North 397 457 24,900 1,500 Climbing Albuquerque Center
12:56AM 34.0828 -111.8967 354° North 418 481 27,000 2,100 Climbing Albuquerque Center
12:57AM 34.2025 -111.9100 355° North 425 489 29,200 1,980 Climbing Albuquerque Center
12:58AM 34.3225 -111.9264 354° North 441 507 31,100 2,040 Climbing Albuquerque Center
12:59AM 34.4478 -111.9436 354° North 449 517 33,400 2,220 Climbing Albuquerque Center
01:00AM 34.5689 -111.9603 354° North 443 510 35,600 1,740 Climbing Albuquerque Center
01:01AM 34.6881 -111.9764 354° North 433 498 37,000 660 Climbing Albuquerque Center
01:02AM 34.8075 -112.0003 351° North 427 491 37,000  Level Albuquerque Center
01:03AM 34.9156 -112.0519 339° North 419 482 37,000  Level Albuquerque Center
01:04AM 35.0261 -112.0986 341° North 422 486 37,000 480 Level Albuquerque Center
01:05AM 35.1364 -112.1444 341° North 420 483 38,000 960 Climbing Albuquerque Center
01:06AM 35.2481 -112.1933 340° North 425 489 39,000 960 Climbing Albuquerque Center
01:07AM 35.3814 -112.2514 340° North 427 491 40,000 480 Climbing Albuquerque Center
01:08AM 35.4944 -112.2994 341° North 431 496 40,000  Level Albuquerque Center
01:09AM 35.6078 -112.3494 340° North 435 501 40,000  Level Albuquerque Center
01:09AM 35.6522 -112.3689 340° North 434 499 40,000  Level Los Angeles Center
01:10AM 35.7647 -112.4183 340° North 434 499 40,000  Level Los Angeles Center
01:11AM 35.8772 -112.4669 341° North 433 498 40,000  Level Los Angeles Center
01:12AM 35.9972 -112.5192 341° North 433 498 40,000  Level Los Angeles Center
01:14AM 36.1125 -112.5708 340° North 440 506 40,000  Level Los Angeles Center
01:15AM 36.2508 -112.6328 340° North 440 506 40,000  Level Los Angeles Center
01:16AM 36.3661 -112.6842 340° North 440 506 40,000  Level Los Angeles Center
01:17AM 36.4822 -112.7347 341° North 441 507 40,000  Level Los Angeles Center
01:18AM 36.6000 -112.7883 340° North 448 516 40,000  Level Los Angeles Center
01:19AM 36.7183 -112.8422 340° North 452 520 40,000  Level Los Angeles Center
01:20AM 36.8131 -112.8847 340° North 452 520 40,000  Level Los Angeles Center
01:21AM 36.9536 -112.9494 340° North 448 516 40,000  Level Los Angeles Center
01:22AM 37.0719 -113.0025 340° North 450 518 40,000  Level Los Angeles Center
01:22AM 37.1411 -113.0344 340° North 450 518 40,000  Level Salt Lake Center
01:23AM 37.2578 -113.0881 340° North 446 513 40,000  Level Salt Lake Center
01:24AM 37.3747 -113.1417 340° North 445 512 40,000  Level Salt Lake Center
01:25AM 37.4225 -113.1633 340° North 442 509 40,000  Level Los Angeles Center
01:25AM 37.4922 -113.1983 338° Northwest 446 513 40,000  Level Salt Lake Center
01:26AM 37.5864 -113.2417 340° North 445 512 40,000  Level Salt Lake Center
01:27AM 37.6964 -113.3142 332° Northwest 443 510 40,000  Level Salt Lake Center
01:28AM 37.8253 -113.4019 332° Northwest 437 503 40,000  Level Salt Lake Center
01:29AM 37.9336 -113.4769 331° Northwest 441 507 40,000  Level Salt Lake Center
01:30AM 38.0431 -113.5522 332° Northwest 444 511 40,000 180 Level Salt Lake Center
01:31AM 38.1533 -113.6281 332° Northwest 449 517 40,400 480 Climbing Salt Lake Center
01:32AM 38.2656 -113.7044 332° Northwest 455 524 41,000 240 Climbing Salt Lake Center
01:33AM 38.3775 -113.7825 331° Northwest 458 527 41,000  Level Salt Lake Center
01:34AM 38.4883 -113.8608 331° Northwest 455 524 41,000  Level Salt Lake Center
01:35AM 38.6017 -113.9381 332° Northwest 459 528 41,000  Level Salt Lake Center
01:36AM 38.7119 -114.0175 331° Northwest 456 525 41,000  Level Salt Lake Center
01:37AM 38.8239 -114.0961 331° Northwest 458 527 41,000  Level Salt Lake Center
01:38AM 38.9333 -114.1736 331° Northwest 452 520 41,000  Level Salt Lake Center
01:39AM 39.0414 -114.2514 331° Northwest 447 514 41,000  Level Salt Lake Center
01:40AM 39.1494 -114.3286 331° Northwest 444 511 41,000  Level Salt Lake Center
01:41AM 39.2508 -114.4067 329° Northwest 443 510 41,000  Level Salt Lake Center
01:42AM 39.3708 -114.4914 331° Northwest 441 507 41,000  Level Salt Lake Center
01:43AM 39.4769 -114.5628 333° Northwest 449 517 41,000  Level Salt Lake Center
01:44AM 39.5803 -114.6386 331° Northwest 447 514 41,000  Level Salt Lake Center
01:45AM 39.6836 -114.7139 331° Northwest 446 513 41,000  Level Salt Lake Center
01:46AM 39.8031 -114.8033 330° Northwest 445 512 41,000  Level Salt Lake Center
01:47AM 39.9067 -114.8792 331° Northwest 446 513 41,000  Level Salt Lake Center
01:48AM 40.0128 -114.9558 331° Northwest 450 518 41,000  Level Salt Lake Center
01:49AM 40.1317 -115.0456 330° Northwest 447 514 41,000  Level Salt Lake Center
01:50AM 40.2358 -115.1222 331° Northwest 449 517 41,000  Level Salt Lake Center
01:51AM 40.3408 -115.2006 330° Northwest 452 520 41,000  Level Salt Lake Center
01:52AM 40.4642 -115.2928 330° Northwest 457 526 41,000  Level Salt Lake Center
01:53AM 40.5656 -115.3714 330° Northwest 449 517 41,000  Level Salt Lake Center
01:54AM 40.6717 -115.4497 331° Northwest 455 524 41,000  Level Salt Lake Center
01:55AM 40.7944 -115.5433 330° Northwest 457 526 41,000  Level Salt Lake Center
01:56AM 40.8978 -115.6217 330° Northwest 452 520 41,000  Level Salt Lake Center
01:57AM 41.0011 -115.7008 330° Northwest 450 518 41,000  Level Salt Lake Center
01:58AM 41.1239 -115.7931 331° Northwest 453 521 41,000  Level Salt Lake Center
01:59AM 41.2264 -115.8728 330° Northwest 450 518 41,000  Level Salt Lake Center
02:00AM 41.3292 -115.9508 330° Northwest 447 514 41,000  Level Salt Lake Center
02:01AM 41.4314 -116.0297 330° Northwest 445 512 41,000  Level Salt Lake Center
02:02AM 41.5522 -116.1242 330° Northwest 449 517 41,000  Level Salt Lake Center
02:03AM 41.6567 -116.2056 330° Northwest 453 521 41,000  Level Salt Lake Center
02:04AM 41.7608 -116.2883 329° Northwest 455 524 41,000  Level Salt Lake Center
02:05AM 41.8844 -116.3869 329° Northwest 459 528 41,000  Level Salt Lake Center
02:06AM 41.9897 -116.4683 330° Northwest 458 527 41,000  Level Salt Lake Center
02:07AM 42.0958 -116.5528 329° Northwest 454 522 41,000  Level Salt Lake Center
02:08AM 42.2022 -116.6381 329° Northwest 462 532 41,000  Level Salt Lake Center
02:09AM 42.3253 -116.7367 329° Northwest 459 528 41,000  Level Salt Lake Center
02:11AM 42.4314 -116.8211 330° Northwest 461 531 41,000  Level Salt Lake Center
02:12AM 42.5367 -116.9069 329° Northwest 460 529 41,000  Level Salt Lake Center
02:13AM 42.6592 -117.0061 329° Northwest 459 528 41,000  Level Salt Lake Center
02:14AM 42.7631 -117.0917 329° Northwest 456 525 41,000  Level Salt Lake Center
02:15AM 42.8672 -117.1772 329° Northwest 456 525 41,000  Level Salt Lake Center
02:16AM 42.9714 -117.2625 329° Northwest 456 525 41,000  Level Salt Lake Center
02:17AM 43.0908 -117.3608 329° Northwest 450 518 41,000  Level Salt Lake Center
02:18AM 43.1944 -117.4461 329° Northwest 451 519 41,000  Level Salt Lake Center
02:19AM 43.2981 -117.5314 329° Northwest 452 520 41,000  Level Salt Lake Center
02:20AM 43.4181 -117.6336 328° Northwest 454 522 41,000  Level Salt Lake Center
02:21AM 43.5219 -117.7189 329° Northwest 455 524 41,000  Level Salt Lake Center
02:22AM 43.6250 -117.8053 329° Northwest 451 519 41,000  Level Salt Lake Center
02:23AM 43.7275 -117.8925 328° Northwest 450 518 41,000  Level Salt Lake Center
02:24AM 43.8478 -117.9950 328° Northwest 449 517 41,000  Level Salt Lake Center
02:25AM 43.9506 -118.0822 329° Northwest 449 517 41,000  Level Salt Lake Center
02:26AM 44.0525 -118.1703 328° Northwest 449 517 41,000  Level Salt Lake Center
02:27AM 44.1553 -118.2564 329° Northwest 449 517 41,000 -60 Level Salt Lake Center
02:28AM 44.2739 -118.3597 328° Northwest 449 517 40,900 -360 Descending Salt Lake Center
02:28AM 44.3081 -118.3894 328° Northwest 448 516 40,600 -720 Descending Seattle Center
02:29AM 44.4164 -118.4825 328° Northwest 454 522 40,000 -300 Descending Seattle Center
02:30AM 44.5236 -118.5756 328° Northwest 456 525 40,000  Level Seattle Center
02:31AM 44.6294 -118.6681 328° Northwest 452 520 40,000  Level Seattle Center
02:32AM 44.7347 -118.7628 327° Northwest 452 520 40,000  Level Seattle Center
02:33AM 44.8422 -118.8556 329° Northwest 453 521 40,000  Level Seattle Center
02:34AM 44.9469 -118.9489 328° Northwest 451 519 40,000  Level Seattle Center
02:35AM 45.0519 -119.0431 328° Northwest 451 519 40,000  Level Seattle Center
02:36AM 45.1561 -119.1375 327° Northwest 448 516 40,000  Level Seattle Center
02:37AM 45.2592 -119.2297 328° Northwest 444 511 40,000  Level Seattle Center
02:38AM 45.3581 -119.3369 323° Northwest 449 517 40,000  Level Seattle Center
02:39AM 45.4575 -119.4425 323° Northwest 451 519 40,000  Level Seattle Center
02:40AM 45.5556 -119.5489 323° Northwest 446 513 40,000  Level Seattle Center
02:41AM 45.6539 -119.6558 323° Northwest 447 514 40,000  Level Seattle Center
02:42AM 45.7514 -119.7619 323° Northwest 446 513 40,000  Level Seattle Center
02:43AM 45.8500 -119.8697 323° Northwest 446 513 40,000  Level Seattle Center
02:44AM 45.9500 -119.9794 323° Northwest 451 519 40,000  Level Seattle Center
02:45AM 46.0503 -120.0928 322° Northwest 458 527 40,000 -420 Level Seattle Center
02:46AM 46.1494 -120.2025 323° Northwest 456 525 39,200 -1,680 Descending Seattle Center
02:47AM 46.2467 -120.3097 323° Northwest 445 512 36,700 -2,820 Descending Seattle Center
02:48AM 46.3439 -120.4206 322° Northwest 443 510 33,600 -3,000 Descending Seattle Center
02:49AM 46.4419 -120.5306 322° Northwest 445 512 30,700 -2,880 Descending Seattle Center
02:50AM 46.5378 -120.6456 320° Northwest 446 513 27,900 -2,640 Descending Seattle Center
02:51AM 46.6178 -120.7800 311° West 440 506 25,400 -2,460 Descending Seattle Center
02:52AM 46.6961 -120.9053 312° West 429 494 23,000 -2,400 Descending Seattle Center
02:53AM 46.7719 -121.0261 313° West 410 472 20,700 -2,520 Descending Seattle Center
02:54AM 46.8578 -121.1639 312° West 385 443 18,000 -2,460 Descending Seattle Center
02:55AM 46.9272 -121.2742 313° West 368 423 15,800 -2,160 Descending Seattle Center
02:55AM 46.9517 -121.3156 311° West 363 418 15,000 -2,100 Descending Seattle Center
02:56AM 46.9914 -121.3867 309° West 359 413 13,700 -2,220 Descending Seattle Center
02:56AM 47.0178 -121.4217 318° Northwest 351 404 12,800 -1,620 Descending Seattle Center
02:57AM 47.0558 -121.4867 311° West 346 398 12,100 -840 Descending Seattle Center
02:57AM 47.0825 -121.5319 311° West 328 377 12,000 -540 Descending Seattle Center
02:58AM 47.0994 -121.5956 291° West 316 364 11,600 -1,140 Descending Seattle Center
02:59AM 47.1142 -121.6614 288° West 305 351 10,800 -1,560 Descending Seattle Center
02:59AM 47.1272 -121.7247 287° West 309 356 10,000 -1,440 Descending Seattle Center
02:59AM 47.1358 -121.7700 286° West 304 350 9,500 -1,440 Descending Seattle Center
03:00AM 47.1508 -121.8400 288° West 297 342 8,600 -1,380 Descending Seattle Center
03:00AM 47.1611 -121.8833 289° West 290 334 8,100 -1,440 Descending Seattle Center
03:01AM 47.1739 -121.9494 286° West 283 326 7,200 -1,500 Descending Seattle Center
03:01AM 47.1803 -121.9836 285° West 276 318 6,800 -1,200 Descending Seattle Center
03:02AM 47.1950 -122.0564 287° West 274 315 6,000 -1,200 Descending Seattle Center
03:03AM 47.2025 -122.0956 286° West 265 305 5,500 -1,200 Descending Seattle Center
03:03AM 47.2156 -122.1572 287° West 261 300 4,800 -1,140 Descending Seattle Center
03:04AM 47.2233 -122.1950 287° West 252 290 4,400 -1,140 Descending Seattle Center
03:04AM 47.2344 -122.2542 285° West 249 287 3,700 -1,200 Descending Seattle Center
03:05AM 47.2450 -122.2875 295° West 239 275 3,200 -720 Descending Seattle Center
03:05AM 47.2767 -122.3128 332° Northwest 233 268 3,000 -360 Descending Seattle Center
03:06AM 47.3067 -122.3122 North 180 207 2,800 -540 Descending Seattle Center
03:06AM 47.3247 -122.3122 360° North 176 203 2,500 -780 Descending Seattle Center
03:07AM 47.3469 -122.3131 359° North 140 161 2,100 -840 Descending Seattle Center
03:07AM 47.3667 -122.3119 North 154 177 1,700 -840 Descending Seattle Center
03:08AM 47.3872 -122.3139 356° North 143 165 1,300 -720 Descending Seattle Center
03:08AM 47.4053 -122.3114 North 141 162 1,000 -720 Descending Seattle Center
03:09AM 47.4267 -122.3117 359° North 139 160 600 -720 Descending Seattle Center
03:09AM 47.4444 -122.3119 359° North 142 163 300 -720 Descending Seattle Center
03:11AM 47.4499 -122.3118 306° West  Level Estimated